sensor_id;sensor_type;location;lat;lon;timestamp;P1;durP1;ratioP1;P2;durP2;ratioP2
26253;SDS011;53339;51.378;0.094;2022-10-17T00:01:58;12.18;;;5.95;;
26253;SDS011;53339;51.378;0.094;2022-10-17T00:04:26;13.60;;;4.95;;
26253;SDS011;53339;51.378;0.094;2022-10-17T00:06:55;14.32;;;4.90;;
26253;SDS011;53339;51.378;0.094;2022-10-17T00:09:23;13.13;;;4.95;;
26253;SDS011;53339;51.378;0.094;2022-10-17T00:11:56;12.95;;;5.35;;
26253;SDS011;53339;51.378;0.094;2022-10-17T00:14:35;17.00;;;5.32;;
26253;SDS011;53339;51.378;0.094;2022-10-17T00:17:03;9.80;;;4.45;;
26253;SDS011;53339;51.378;0.094;2022-10-17T00:19:35;13.40;;;4.68;;
26253;SDS011;53339;51.378;0.094;2022-10-17T00:22:03;15.18;;;5.78;;
26253;SDS011;53339;51.378;0.094;2022-10-17T00:24:31;15.13;;;4.68;;
26253;SDS011;53339;51.378;0.094;2022-10-17T00:26:59;10.15;;;4.03;;
26253;SDS011;53339;51.378;0.094;2022-10-17T00:29:27;8.73;;;4.22;;
26253;SDS011;53339;51.378;0.094;2022-10-17T00:31:55;10.80;;;4.22;;
26253;SDS011;53339;51.378;0.094;2022-10-17T00:34:27;12.43;;;4.63;;
26253;SDS011;53339;51.378;0.094;2022-10-17T00:36:56;10.07;;;3.75;;
26253;SDS011;53339;51.378;0.094;2022-10-17T00:39:24;10.48;;;3.97;;
26253;SDS011;53339;51.378;0.094;2022-10-17T00:41:57;12.18;;;3.63;;
26253;SDS011;53339;51.378;0.094;2022-10-17T00:46:57;8.63;;;3.42;;
26253;SDS011;53339;51.378;0.094;2022-10-17T00:49:32;11.98;;;3.40;;
26253;SDS011;53339;51.378;0.094;2022-10-17T00:52:03;10.88;;;3.80;;
26253;SDS011;53339;51.378;0.094;2022-10-17T00:54:45;8.60;;;3.20;;
26253;SDS011;53339;51.378;0.094;2022-10-17T00:57:40;10.82;;;3.92;;
26253;SDS011;53339;51.378;0.094;2022-10-17T01:00:11;7.80;;;3.03;;
26253;SDS011;53339;51.378;0.094;2022-10-17T01:02:41;8.07;;;4.05;;
26253;SDS011;53339;51.378;0.094;2022-10-17T01:05:09;11.55;;;3.00;;
26253;SDS011;53339;51.378;0.094;2022-10-17T01:07:43;12.13;;;3.15;;
26253;SDS011;53339;51.378;0.094;2022-10-17T01:10:15;9.27;;;2.38;;
26253;SDS011;53339;51.378;0.094;2022-10-17T01:18:38;8.02;;;2.75;;
26253;SDS011;53339;51.378;0.094;2022-10-17T01:27:42;7.15;;;2.70;;
26253;SDS011;53339;51.378;0.094;2022-10-17T01:33:31;7.55;;;2.42;;
26253;SDS011;53339;51.378;0.094;2022-10-17T01:39:18;8.70;;;2.83;;
26253;SDS011;53339;51.378;0.094;2022-10-17T01:41:51;7.72;;;2.78;;
26253;SDS011;53339;51.378;0.094;2022-10-17T01:44:50;5.70;;;2.47;;
26253;SDS011;53339;51.378;0.094;2022-10-17T01:47:46;9.82;;;2.85;;
26253;SDS011;53339;51.378;0.094;2022-10-17T01:50:30;9.63;;;2.90;;
26253;SDS011;53339;51.378;0.094;2022-10-17T01:53:09;10.48;;;2.97;;
26253;SDS011;53339;51.378;0.094;2022-10-17T01:55:45;6.28;;;2.50;;
26253;SDS011;53339;51.378;0.094;2022-10-17T01:58:25;5.50;;;2.38;;
26253;SDS011;53339;51.378;0.094;2022-10-17T02:00:59;6.80;;;2.30;;
26253;SDS011;53339;51.378;0.094;2022-10-17T02:03:36;5.55;;;3.42;;
26253;SDS011;53339;51.378;0.094;2022-10-17T02:06:06;7.00;;;2.33;;
26253;SDS011;53339;51.378;0.094;2022-10-17T02:08:44;12.40;;;3.10;;
26253;SDS011;53339;51.378;0.094;2022-10-17T02:11:22;9.20;;;3.08;;
26253;SDS011;53339;51.378;0.094;2022-10-17T02:27:59;6.47;;;2.33;;
26253;SDS011;53339;51.378;0.094;2022-10-17T02:34:04;10.10;;;2.85;;
26253;SDS011;53339;51.378;0.094;2022-10-17T02:36:50;6.50;;;2.33;;
26253;SDS011;53339;51.378;0.094;2022-10-17T02:39:22;6.82;;;2.90;;
26253;SDS011;53339;51.378;0.094;2022-10-17T02:42:02;12.75;;;2.60;;
26253;SDS011;53339;51.378;0.094;2022-10-17T02:44:43;8.10;;;2.17;;
26253;SDS011;53339;51.378;0.094;2022-10-17T02:47:21;4.53;;;2.55;;
26253;SDS011;53339;51.378;0.094;2022-10-17T02:49:54;4.63;;;2.08;;
26253;SDS011;53339;51.378;0.094;2022-10-17T02:52:36;3.38;;;1.92;;
26253;SDS011;53339;51.378;0.094;2022-10-17T02:55:17;9.00;;;2.08;;
26253;SDS011;53339;51.378;0.094;2022-10-17T03:00:18;7.95;;;2.70;;
26253;SDS011;53339;51.378;0.094;2022-10-17T03:02:50;6.47;;;2.20;;
26253;SDS011;53339;51.378;0.094;2022-10-17T03:05:20;9.70;;;2.20;;
26253;SDS011;53339;51.378;0.094;2022-10-17T03:07:55;8.73;;;2.00;;
26253;SDS011;53339;51.378;0.094;2022-10-17T03:10:27;7.25;;;2.38;;
26253;SDS011;53339;51.378;0.094;2022-10-17T03:12:57;12.48;;;2.10;;
26253;SDS011;53339;51.378;0.094;2022-10-17T03:15:25;7.28;;;2.53;;
26253;SDS011;53339;51.378;0.094;2022-10-17T03:17:53;9.25;;;2.47;;
26253;SDS011;53339;51.378;0.094;2022-10-17T03:20:32;8.80;;;2.35;;
26253;SDS011;53339;51.378;0.094;2022-10-17T03:23:00;6.13;;;2.78;;
26253;SDS011;53339;51.378;0.094;2022-10-17T03:25:34;8.77;;;2.10;;
26253;SDS011;53339;51.378;0.094;2022-10-17T03:28:01;5.75;;;2.08;;
26253;SDS011;53339;51.378;0.094;2022-10-17T03:30:33;7.40;;;2.25;;
26253;SDS011;53339;51.378;0.094;2022-10-17T03:33:01;7.75;;;2.35;;
26253;SDS011;53339;51.378;0.094;2022-10-17T03:35:32;6.22;;;2.22;;
26253;SDS011;53339;51.378;0.094;2022-10-17T03:38:10;7.78;;;2.58;;
26253;SDS011;53339;51.378;0.094;2022-10-17T03:40:38;10.70;;;2.42;;
26253;SDS011;53339;51.378;0.094;2022-10-17T03:43:06;8.15;;;2.53;;
26253;SDS011;53339;51.378;0.094;2022-10-17T03:45:34;6.20;;;2.33;;
26253;SDS011;53339;51.378;0.094;2022-10-17T03:48:12;10.50;;;2.40;;
26253;SDS011;53339;51.378;0.094;2022-10-17T03:50:40;7.22;;;2.15;;
26253;SDS011;53339;51.378;0.094;2022-10-17T03:53:14;7.15;;;2.17;;
26253;SDS011;53339;51.378;0.094;2022-10-17T03:55:42;10.93;;;2.10;;
26253;SDS011;53339;51.378;0.094;2022-10-17T03:58:22;6.60;;;2.42;;
26253;SDS011;53339;51.378;0.094;2022-10-17T04:00:52;7.75;;;2.47;;
26253;SDS011;53339;51.378;0.094;2022-10-17T04:03:21;8.43;;;2.85;;
26253;SDS011;53339;51.378;0.094;2022-10-17T04:05:49;9.68;;;2.03;;
26253;SDS011;53339;51.378;0.094;2022-10-17T04:08:22;6.72;;;1.90;;
26253;SDS011;53339;51.378;0.094;2022-10-17T04:11:05;8.93;;;2.28;;
26253;SDS011;53339;51.378;0.094;2022-10-17T04:13:37;6.13;;;2.35;;
26253;SDS011;53339;51.378;0.094;2022-10-17T04:16:14;5.97;;;2.00;;
26253;SDS011;53339;51.378;0.094;2022-10-17T04:19:00;9.10;;;2.30;;
26253;SDS011;53339;51.378;0.094;2022-10-17T04:21:37;8.38;;;2.92;;
26253;SDS011;53339;51.378;0.094;2022-10-17T04:24:09;8.98;;;2.40;;
26253;SDS011;53339;51.378;0.094;2022-10-17T04:26:50;7.07;;;2.15;;
26253;SDS011;53339;51.378;0.094;2022-10-17T04:29:26;10.32;;;2.67;;
26253;SDS011;53339;51.378;0.094;2022-10-17T04:32:19;7.07;;;2.03;;
26253;SDS011;53339;51.378;0.094;2022-10-17T04:35:02;9.50;;;2.60;;
26253;SDS011;53339;51.378;0.094;2022-10-17T04:37:32;7.18;;;2.35;;
26253;SDS011;53339;51.378;0.094;2022-10-17T04:40:06;8.05;;;2.42;;
26253;SDS011;53339;51.378;0.094;2022-10-17T04:42:38;6.55;;;2.17;;
26253;SDS011;53339;51.378;0.094;2022-10-17T04:45:10;8.32;;;3.47;;
26253;SDS011;53339;51.378;0.094;2022-10-17T04:47:40;9.32;;;2.13;;
26253;SDS011;53339;51.378;0.094;2022-10-17T04:50:09;8.60;;;2.78;;
26253;SDS011;53339;51.378;0.094;2022-10-17T04:52:39;9.98;;;2.25;;
26253;SDS011;53339;51.378;0.094;2022-10-17T04:55:08;8.60;;;2.33;;
26253;SDS011;53339;51.378;0.094;2022-10-17T04:57:38;12.32;;;2.13;;
26253;SDS011;53339;51.378;0.094;2022-10-17T05:00:15;10.68;;;2.55;;
26253;SDS011;53339;51.378;0.094;2022-10-17T05:03:04;8.43;;;2.72;;
26253;SDS011;53339;51.378;0.094;2022-10-17T05:05:40;7.65;;;2.15;;
26253;SDS011;53339;51.378;0.094;2022-10-17T05:08:10;5.20;;;2.30;;
26253;SDS011;53339;51.378;0.094;2022-10-17T05:10:39;5.28;;;2.88;;
26253;SDS011;53339;51.378;0.094;2022-10-17T05:13:10;7.00;;;2.05;;
26253;SDS011;53339;51.378;0.094;2022-10-17T05:15:40;11.85;;;2.22;;
26253;SDS011;53339;51.378;0.094;2022-10-17T05:18:11;10.35;;;2.65;;
26253;SDS011;53339;51.378;0.094;2022-10-17T05:20:43;11.55;;;2.67;;
26253;SDS011;53339;51.378;0.094;2022-10-17T05:23:13;6.80;;;2.05;;
26253;SDS011;53339;51.378;0.094;2022-10-17T05:25:53;9.65;;;2.47;;
26253;SDS011;53339;51.378;0.094;2022-10-17T05:28:24;9.75;;;2.20;;
26253;SDS011;53339;51.378;0.094;2022-10-17T05:30:56;10.73;;;2.17;;
26253;SDS011;53339;51.378;0.094;2022-10-17T05:33:28;11.20;;;2.35;;
26253;SDS011;53339;51.378;0.094;2022-10-17T05:35:57;9.05;;;2.50;;
26253;SDS011;53339;51.378;0.094;2022-10-17T05:38:26;7.47;;;2.15;;
26253;SDS011;53339;51.378;0.094;2022-10-17T05:41:01;8.35;;;2.25;;
26253;SDS011;53339;51.378;0.094;2022-10-17T05:43:34;8.20;;;2.55;;
26253;SDS011;53339;51.378;0.094;2022-10-17T05:46:03;11.57;;;2.25;;
26253;SDS011;53339;51.378;0.094;2022-10-17T05:48:35;8.05;;;2.40;;
26253;SDS011;53339;51.378;0.094;2022-10-17T05:51:07;9.35;;;2.60;;
26253;SDS011;53339;51.378;0.094;2022-10-17T05:53:37;13.73;;;2.55;;
26253;SDS011;53339;51.378;0.094;2022-10-17T05:56:10;17.00;;;2.58;;
26253;SDS011;53339;51.378;0.094;2022-10-17T05:58:40;8.60;;;2.05;;
26253;SDS011;53339;51.378;0.094;2022-10-17T06:01:33;11.25;;;3.08;;
26253;SDS011;53339;51.378;0.094;2022-10-17T06:06:31;10.73;;;2.83;;
26253;SDS011;53339;51.378;0.094;2022-10-17T06:08:59;13.55;;;2.75;;
26253;SDS011;53339;51.378;0.094;2022-10-17T06:11:32;7.75;;;2.33;;
26253;SDS011;53339;51.378;0.094;2022-10-17T06:14:06;8.90;;;2.88;;
26253;SDS011;53339;51.378;0.094;2022-10-17T06:16:40;10.10;;;2.92;;
26253;SDS011;53339;51.378;0.094;2022-10-17T06:19:12;10.13;;;2.47;;
26253;SDS011;53339;51.378;0.094;2022-10-17T06:21:47;13.43;;;2.45;;
26253;SDS011;53339;51.378;0.094;2022-10-17T06:24:23;21.42;;;2.95;;
26253;SDS011;53339;51.378;0.094;2022-10-17T06:26:53;11.18;;;3.13;;
26253;SDS011;53339;51.378;0.094;2022-10-17T06:29:29;9.32;;;2.88;;
26253;SDS011;53339;51.378;0.094;2022-10-17T06:31:58;8.20;;;2.42;;
26253;SDS011;53339;51.378;0.094;2022-10-17T06:34:26;5.88;;;2.22;;
26253;SDS011;53339;51.378;0.094;2022-10-17T06:36:54;9.65;;;2.22;;
26253;SDS011;53339;51.378;0.094;2022-10-17T06:39:25;7.32;;;2.25;;
26253;SDS011;53339;51.378;0.094;2022-10-17T06:42:00;5.28;;;2.70;;
26253;SDS011;53339;51.378;0.094;2022-10-17T06:45:07;6.50;;;2.47;;
26253;SDS011;53339;51.378;0.094;2022-10-17T06:47:57;6.13;;;2.55;;
26253;SDS011;53339;51.378;0.094;2022-10-17T06:50:42;8.25;;;2.53;;
26253;SDS011;53339;51.378;0.094;2022-10-17T06:53:20;4.18;;;1.63;;
26253;SDS011;53339;51.378;0.094;2022-10-17T06:55:51;6.47;;;1.70;;
26253;SDS011;53339;51.378;0.094;2022-10-17T06:58:38;3.40;;;1.98;;
26253;SDS011;53339;51.378;0.094;2022-10-17T07:01:12;6.68;;;2.25;;
26253;SDS011;53339;51.378;0.094;2022-10-17T07:03:46;4.82;;;2.15;;
26253;SDS011;53339;51.378;0.094;2022-10-17T07:06:15;4.00;;;1.88;;
26253;SDS011;53339;51.378;0.094;2022-10-17T07:08:46;6.80;;;1.83;;
26253;SDS011;53339;51.378;0.094;2022-10-17T07:11:18;6.90;;;1.42;;
26253;SDS011;53339;51.378;0.094;2022-10-17T07:13:53;4.50;;;2.00;;
26253;SDS011;53339;51.378;0.094;2022-10-17T07:16:23;8.23;;;1.80;;
26253;SDS011;53339;51.378;0.094;2022-10-17T07:19:03;4.65;;;2.05;;
26253;SDS011;53339;51.378;0.094;2022-10-17T07:21:39;6.10;;;1.70;;
26253;SDS011;53339;51.378;0.094;2022-10-17T07:24:11;4.65;;;1.20;;
26253;SDS011;53339;51.378;0.094;2022-10-17T07:26:41;7.22;;;1.88;;
26253;SDS011;53339;51.378;0.094;2022-10-17T07:29:09;6.43;;;1.48;;
26253;SDS011;53339;51.378;0.094;2022-10-17T07:32:01;5.35;;;1.88;;
26253;SDS011;53339;51.378;0.094;2022-10-17T07:34:36;4.85;;;1.55;;
26253;SDS011;53339;51.378;0.094;2022-10-17T07:37:05;3.72;;;1.55;;
26253;SDS011;53339;51.378;0.094;2022-10-17T07:39:33;11.00;;;1.85;;
26253;SDS011;53339;51.378;0.094;2022-10-17T07:42:07;5.93;;;1.75;;
26253;SDS011;53339;51.378;0.094;2022-10-17T07:44:35;7.32;;;1.58;;
26253;SDS011;53339;51.378;0.094;2022-10-17T07:47:04;6.75;;;1.85;;
26253;SDS011;53339;51.378;0.094;2022-10-17T07:49:35;7.18;;;1.42;;
26253;SDS011;53339;51.378;0.094;2022-10-17T07:52:13;6.30;;;1.92;;
26253;SDS011;53339;51.378;0.094;2022-10-17T07:54:44;6.97;;;2.42;;
26253;SDS011;53339;51.378;0.094;2022-10-17T07:57:13;6.40;;;1.80;;
26253;SDS011;53339;51.378;0.094;2022-10-17T07:59:45;7.50;;;1.67;;
26253;SDS011;53339;51.378;0.094;2022-10-17T08:02:19;6.18;;;1.75;;
26253;SDS011;53339;51.378;0.094;2022-10-17T08:04:52;4.35;;;1.73;;
26253;SDS011;53339;51.378;0.094;2022-10-17T08:07:24;6.00;;;1.70;;
26253;SDS011;53339;51.378;0.094;2022-10-17T08:09:55;7.97;;;1.85;;
26253;SDS011;53339;51.378;0.094;2022-10-17T08:12:23;6.60;;;1.90;;
26253;SDS011;53339;51.378;0.094;2022-10-17T08:14:53;8.10;;;1.50;;
26253;SDS011;53339;51.378;0.094;2022-10-17T08:17:21;4.70;;;1.90;;
26253;SDS011;53339;51.378;0.094;2022-10-17T08:19:51;8.75;;;1.85;;
26253;SDS011;53339;51.378;0.094;2022-10-17T08:22:19;8.55;;;1.15;;
26253;SDS011;53339;51.378;0.094;2022-10-17T08:24:55;6.50;;;2.50;;
26253;SDS011;53339;51.378;0.094;2022-10-17T08:27:26;7.95;;;2.30;;
26253;SDS011;53339;51.378;0.094;2022-10-17T08:29:58;3.45;;;1.73;;
26253;SDS011;53339;51.378;0.094;2022-10-17T08:32:27;5.38;;;2.38;;
26253;SDS011;53339;51.378;0.094;2022-10-17T08:34:59;7.75;;;2.40;;
26253;SDS011;53339;51.378;0.094;2022-10-17T08:37:27;3.55;;;1.52;;
26253;SDS011;53339;51.378;0.094;2022-10-17T08:40:00;8.40;;;1.98;;
26253;SDS011;53339;51.378;0.094;2022-10-17T08:48:04;5.38;;;1.75;;
26253;SDS011;53339;51.378;0.094;2022-10-17T08:51:14;3.53;;;2.08;;
26253;SDS011;53339;51.378;0.094;2022-10-17T08:54:05;9.63;;;2.08;;
26253;SDS011;53339;51.378;0.094;2022-10-17T08:56:43;11.85;;;2.17;;
26253;SDS011;53339;51.378;0.094;2022-10-17T08:59:17;10.20;;;1.67;;
26253;SDS011;53339;51.378;0.094;2022-10-17T09:01:55;6.97;;;1.88;;
26253;SDS011;53339;51.378;0.094;2022-10-17T09:07:47;10.27;;;1.73;;
26253;SDS011;53339;51.378;0.094;2022-10-17T09:10:34;5.75;;;1.83;;
26253;SDS011;53339;51.378;0.094;2022-10-17T09:13:42;5.22;;;1.85;;
26253;SDS011;53339;51.378;0.094;2022-10-17T09:18:45;6.45;;;1.63;;
26253;SDS011;53339;51.378;0.094;2022-10-17T09:24:50;7.85;;;1.85;;
26253;SDS011;53339;51.378;0.094;2022-10-17T09:27:31;6.13;;;1.75;;
26253;SDS011;53339;51.378;0.094;2022-10-17T09:33:18;4.07;;;1.85;;
26253;SDS011;53339;51.378;0.094;2022-10-17T09:35:54;8.55;;;2.40;;
26253;SDS011;53339;51.378;0.094;2022-10-17T09:38:25;10.55;;;2.20;;
26253;SDS011;53339;51.378;0.094;2022-10-17T09:41:14;10.13;;;1.90;;
26253;SDS011;53339;51.378;0.094;2022-10-17T09:49:37;8.55;;;1.98;;
26253;SDS011;53339;51.378;0.094;2022-10-17T09:52:12;6.45;;;2.13;;
26253;SDS011;53339;51.378;0.094;2022-10-17T10:00:35;10.00;;;2.15;;
26253;SDS011;53339;51.378;0.094;2022-10-17T10:06:13;14.60;;;2.08;;
26253;SDS011;53339;51.378;0.094;2022-10-17T10:08:52;14.50;;;2.38;;
26253;SDS011;53339;51.378;0.094;2022-10-17T10:11:43;6.68;;;2.17;;
26253;SDS011;53339;51.378;0.094;2022-10-17T10:14:31;9.82;;;3.42;;
26253;SDS011;53339;51.378;0.094;2022-10-17T10:20:03;8.02;;;2.15;;
26253;SDS011;53339;51.378;0.094;2022-10-17T10:23:11;10.23;;;2.10;;
26253;SDS011;53339;51.378;0.094;2022-10-17T10:25:57;11.82;;;2.42;;
26253;SDS011;53339;51.378;0.094;2022-10-17T10:31:08;9.57;;;1.60;;
26253;SDS011;53339;51.378;0.094;2022-10-17T10:33:39;12.35;;;2.13;;
26253;SDS011;53339;51.378;0.094;2022-10-17T10:36:13;6.65;;;1.90;;
26253;SDS011;53339;51.378;0.094;2022-10-17T10:38:49;9.00;;;2.35;;
26253;SDS011;53339;51.378;0.094;2022-10-17T10:41:29;7.63;;;2.03;;
26253;SDS011;53339;51.378;0.094;2022-10-17T10:44:19;8.40;;;1.77;;
26253;SDS011;53339;51.378;0.094;2022-10-17T10:47:07;8.32;;;1.95;;
26253;SDS011;53339;51.378;0.094;2022-10-17T10:49:52;8.27;;;1.60;;
26253;SDS011;53339;51.378;0.094;2022-10-17T10:56:20;7.28;;;1.60;;
26253;SDS011;53339;51.378;0.094;2022-10-17T10:59:05;6.95;;;1.60;;
26253;SDS011;53339;51.378;0.094;2022-10-17T11:02:09;11.25;;;1.77;;
26253;SDS011;53339;51.378;0.094;2022-10-17T11:04:57;11.27;;;1.55;;
26253;SDS011;53339;51.378;0.094;2022-10-17T11:07:34;9.98;;;1.90;;
26253;SDS011;53339;51.378;0.094;2022-10-17T11:15:50;7.60;;;2.08;;
26253;SDS011;53339;51.378;0.094;2022-10-17T11:18:56;9.68;;;1.85;;
26253;SDS011;53339;51.378;0.094;2022-10-17T11:21:51;8.10;;;1.63;;
26253;SDS011;53339;51.378;0.094;2022-10-17T11:24:33;9.50;;;1.58;;
26253;SDS011;53339;51.378;0.094;2022-10-17T11:27:31;9.18;;;2.20;;
26253;SDS011;53339;51.378;0.094;2022-10-17T11:30:05;7.65;;;1.80;;
26253;SDS011;53339;51.378;0.094;2022-10-17T11:32:36;8.27;;;1.98;;
26253;SDS011;53339;51.378;0.094;2022-10-17T11:41:23;10.98;;;2.25;;
26253;SDS011;53339;51.378;0.094;2022-10-17T11:44:03;7.20;;;1.35;;
26253;SDS011;53339;51.378;0.094;2022-10-17T11:46:53;7.45;;;1.45;;
26253;SDS011;53339;51.378;0.094;2022-10-17T11:49:49;7.00;;;1.50;;
26253;SDS011;53339;51.378;0.094;2022-10-17T11:52:51;7.68;;;1.70;;
26253;SDS011;53339;51.378;0.094;2022-10-17T11:55:28;10.32;;;1.77;;
26253;SDS011;53339;51.378;0.094;2022-10-17T11:58:22;7.20;;;1.27;;
26253;SDS011;53339;51.378;0.094;2022-10-17T12:12:28;6.57;;;1.30;;
26253;SDS011;53339;51.378;0.094;2022-10-17T12:17:44;9.32;;;1.67;;
26253;SDS011;53339;51.378;0.094;2022-10-17T12:20:31;6.00;;;2.08;;
26253;SDS011;53339;51.378;0.094;2022-10-17T12:23:22;9.73;;;1.70;;
26253;SDS011;53339;51.378;0.094;2022-10-17T12:55:17;12.40;;;2.00;;
26253;SDS011;53339;51.378;0.094;2022-10-17T13:00:42;7.28;;;1.48;;
26253;SDS011;53339;51.378;0.094;2022-10-17T13:03:46;11.45;;;2.00;;
26253;SDS011;53339;51.378;0.094;2022-10-17T13:06:20;10.65;;;2.03;;
26253;SDS011;53339;51.378;0.094;2022-10-17T13:08:59;6.75;;;1.75;;
26253;SDS011;53339;51.378;0.094;2022-10-17T13:11:34;9.27;;;1.70;;
26253;SDS011;53339;51.378;0.094;2022-10-17T13:14:10;11.48;;;2.15;;
26253;SDS011;53339;51.378;0.094;2022-10-17T13:17:02;8.02;;;1.60;;
26253;SDS011;53339;51.378;0.094;2022-10-17T13:19:42;5.50;;;1.25;;
26253;SDS011;53339;51.378;0.094;2022-10-17T13:22:25;11.50;;;2.13;;
26253;SDS011;53339;51.378;0.094;2022-10-17T13:27:45;7.93;;;1.95;;
26253;SDS011;53339;51.378;0.094;2022-10-17T13:33:33;8.93;;;1.33;;
26253;SDS011;53339;51.378;0.094;2022-10-17T13:36:06;9.77;;;1.92;;
26253;SDS011;53339;51.378;0.094;2022-10-17T13:38:47;12.25;;;1.58;;
26253;SDS011;53339;51.378;0.094;2022-10-17T13:41:24;10.20;;;1.73;;
26253;SDS011;53339;51.378;0.094;2022-10-17T13:44:09;9.75;;;2.25;;
26253;SDS011;53339;51.378;0.094;2022-10-17T13:46:48;7.45;;;1.25;;
26253;SDS011;53339;51.378;0.094;2022-10-17T13:51:52;6.63;;;1.65;;
26253;SDS011;53339;51.378;0.094;2022-10-17T13:54:35;7.15;;;1.52;;
26253;SDS011;53339;51.378;0.094;2022-10-17T13:57:24;8.13;;;1.63;;
26253;SDS011;53339;51.378;0.094;2022-10-17T13:59:56;7.70;;;1.40;;
26253;SDS011;53339;51.378;0.094;2022-10-17T14:02:39;7.35;;;1.38;;
26253;SDS011;53339;51.378;0.094;2022-10-17T14:05:17;4.97;;;1.25;;
26253;SDS011;53339;51.378;0.094;2022-10-17T14:07:54;6.35;;;1.58;;
26253;SDS011;53339;51.378;0.094;2022-10-17T14:10:46;9.00;;;1.15;;
26253;SDS011;53339;51.378;0.094;2022-10-17T14:13:30;5.07;;;1.00;;
26253;SDS011;53339;51.378;0.094;2022-10-17T14:16:08;8.80;;;1.58;;
26253;SDS011;53339;51.378;0.094;2022-10-17T14:18:44;7.03;;;1.10;;
26253;SDS011;53339;51.378;0.094;2022-10-17T14:21:25;6.55;;;1.33;;
26253;SDS011;53339;51.378;0.094;2022-10-17T14:26:56;7.78;;;1.75;;
26253;SDS011;53339;51.378;0.094;2022-10-17T14:29:30;7.88;;;1.33;;
26253;SDS011;53339;51.378;0.094;2022-10-17T14:32:28;7.05;;;1.42;;
26253;SDS011;53339;51.378;0.094;2022-10-17T14:35:04;5.72;;;1.33;;
26253;SDS011;53339;51.378;0.094;2022-10-17T14:37:56;10.38;;;1.63;;
26253;SDS011;53339;51.378;0.094;2022-10-17T14:40:26;6.75;;;1.58;;
26253;SDS011;53339;51.378;0.094;2022-10-17T14:43:02;5.15;;;1.02;;
26253;SDS011;53339;51.378;0.094;2022-10-17T14:48:27;7.32;;;1.60;;
26253;SDS011;53339;51.378;0.094;2022-10-17T14:51:12;7.55;;;1.33;;
26253;SDS011;53339;51.378;0.094;2022-10-17T14:53:56;13.48;;;1.85;;
26253;SDS011;53339;51.378;0.094;2022-10-17T14:56:34;9.32;;;1.27;;
26253;SDS011;53339;51.378;0.094;2022-10-17T14:59:20;7.68;;;1.23;;
26253;SDS011;53339;51.378;0.094;2022-10-17T15:02:13;11.25;;;1.77;;
26253;SDS011;53339;51.378;0.094;2022-10-17T15:04:44;8.43;;;1.25;;
26253;SDS011;53339;51.378;0.094;2022-10-17T15:07:13;6.15;;;1.38;;
26253;SDS011;53339;51.378;0.094;2022-10-17T15:09:42;3.20;;;1.20;;
26253;SDS011;53339;51.378;0.094;2022-10-17T15:12:20;8.95;;;1.60;;
26253;SDS011;53339;51.378;0.094;2022-10-17T15:14:49;8.25;;;1.05;;
26253;SDS011;53339;51.378;0.094;2022-10-17T15:17:25;5.45;;;1.40;;
26253;SDS011;53339;51.378;0.094;2022-10-17T15:19:59;8.43;;;1.63;;
26253;SDS011;53339;51.378;0.094;2022-10-17T15:22:27;6.50;;;1.42;;
26253;SDS011;53339;51.378;0.094;2022-10-17T15:24:57;5.72;;;1.35;;
26253;SDS011;53339;51.378;0.094;2022-10-17T15:27:25;7.25;;;1.15;;
26253;SDS011;53339;51.378;0.094;2022-10-17T15:29:59;5.47;;;1.60;;
26253;SDS011;53339;51.378;0.094;2022-10-17T15:32:28;4.25;;;1.20;;
26253;SDS011;53339;51.378;0.094;2022-10-17T15:34:59;9.48;;;1.52;;
26253;SDS011;53339;51.378;0.094;2022-10-17T15:37:32;5.78;;;1.00;;
26253;SDS011;53339;51.378;0.094;2022-10-17T15:40:08;7.55;;;1.50;;
26253;SDS011;53339;51.378;0.094;2022-10-17T15:42:45;6.22;;;1.20;;
26253;SDS011;53339;51.378;0.094;2022-10-17T15:45:20;5.90;;;1.38;;
26253;SDS011;53339;51.378;0.094;2022-10-17T15:47:52;5.22;;;0.82;;
26253;SDS011;53339;51.378;0.094;2022-10-17T15:50:26;9.35;;;1.35;;
26253;SDS011;53339;51.378;0.094;2022-10-17T15:52:59;6.10;;;1.77;;
26253;SDS011;53339;51.378;0.094;2022-10-17T15:55:27;6.88;;;1.48;;
26253;SDS011;53339;51.378;0.094;2022-10-17T15:57:56;8.32;;;1.45;;
26253;SDS011;53339;51.378;0.094;2022-10-17T16:00:24;5.65;;;1.13;;
26253;SDS011;53339;51.378;0.094;2022-10-17T16:02:51;5.93;;;1.63;;
26253;SDS011;53339;51.378;0.094;2022-10-17T16:05:22;6.78;;;1.50;;
26253;SDS011;53339;51.378;0.094;2022-10-17T16:07:57;7.22;;;1.30;;
26253;SDS011;53339;51.378;0.094;2022-10-17T16:10:31;6.22;;;1.70;;
26253;SDS011;53339;51.378;0.094;2022-10-17T16:13:07;5.35;;;1.65;;
26253;SDS011;53339;51.378;0.094;2022-10-17T16:15:44;5.78;;;1.30;;
26253;SDS011;53339;51.378;0.094;2022-10-17T16:18:11;4.65;;;1.52;;
26253;SDS011;53339;51.378;0.094;2022-10-17T16:20:47;5.93;;;1.38;;
26253;SDS011;53339;51.378;0.094;2022-10-17T16:23:25;5.38;;;1.40;;
26253;SDS011;53339;51.378;0.094;2022-10-17T16:26:00;5.78;;;1.27;;
26253;SDS011;53339;51.378;0.094;2022-10-17T16:28:28;6.22;;;2.28;;
26253;SDS011;53339;51.378;0.094;2022-10-17T16:30:55;7.35;;;1.52;;
26253;SDS011;53339;51.378;0.094;2022-10-17T16:33:26;6.60;;;1.45;;
26253;SDS011;53339;51.378;0.094;2022-10-17T16:35:58;8.88;;;1.73;;
26253;SDS011;53339;51.378;0.094;2022-10-17T16:38:29;6.72;;;1.60;;
26253;SDS011;53339;51.378;0.094;2022-10-17T16:40:57;11.82;;;2.72;;
26253;SDS011;53339;51.378;0.094;2022-10-17T16:43:26;8.13;;;2.20;;
26253;SDS011;53339;51.378;0.094;2022-10-17T16:45:59;14.60;;;1.92;;
26253;SDS011;53339;51.378;0.094;2022-10-17T16:48:37;7.30;;;1.45;;
26253;SDS011;53339;51.378;0.094;2022-10-17T16:51:11;6.80;;;1.80;;
26253;SDS011;53339;51.378;0.094;2022-10-17T16:53:40;9.65;;;2.47;;
26253;SDS011;53339;51.378;0.094;2022-10-17T16:56:19;10.90;;;1.73;;
26253;SDS011;53339;51.378;0.094;2022-10-17T16:58:55;8.48;;;1.55;;
26253;SDS011;53339;51.378;0.094;2022-10-17T17:01:23;6.38;;;1.50;;
26253;SDS011;53339;51.378;0.094;2022-10-17T17:03:56;9.43;;;1.83;;
26253;SDS011;53339;51.378;0.094;2022-10-17T17:06:28;8.85;;;2.33;;
26253;SDS011;53339;51.378;0.094;2022-10-17T17:08:56;8.45;;;2.00;;
26253;SDS011;53339;51.378;0.094;2022-10-17T17:11:25;11.00;;;2.63;;
26253;SDS011;53339;51.378;0.094;2022-10-17T17:16:30;8.55;;;2.72;;
26253;SDS011;53339;51.378;0.094;2022-10-17T17:19:08;9.43;;;1.75;;
26253;SDS011;53339;51.378;0.094;2022-10-17T17:21:42;6.30;;;2.03;;
26253;SDS011;53339;51.378;0.094;2022-10-17T17:24:17;7.72;;;1.77;;
26253;SDS011;53339;51.378;0.094;2022-10-17T17:26:51;8.07;;;2.63;;
26253;SDS011;53339;51.378;0.094;2022-10-17T17:29:21;7.28;;;1.70;;
26253;SDS011;53339;51.378;0.094;2022-10-17T17:31:53;12.75;;;2.42;;
26253;SDS011;53339;51.378;0.094;2022-10-17T17:34:23;7.85;;;2.10;;
26253;SDS011;53339;51.378;0.094;2022-10-17T17:36:55;15.13;;;2.42;;
26253;SDS011;53339;51.378;0.094;2022-10-17T17:39:24;9.32;;;2.20;;
26253;SDS011;53339;51.378;0.094;2022-10-17T17:41:56;9.77;;;2.10;;
26253;SDS011;53339;51.378;0.094;2022-10-17T17:44:25;10.32;;;2.05;;
26253;SDS011;53339;51.378;0.094;2022-10-17T17:46:56;14.27;;;2.20;;
26253;SDS011;53339;51.378;0.094;2022-10-17T17:49:24;11.38;;;1.83;;
26253;SDS011;53339;51.378;0.094;2022-10-17T17:51:56;17.05;;;2.13;;
26253;SDS011;53339;51.378;0.094;2022-10-17T17:54:37;9.13;;;2.28;;
26253;SDS011;53339;51.378;0.094;2022-10-17T17:57:06;10.32;;;2.13;;
26253;SDS011;53339;51.378;0.094;2022-10-17T17:59:38;10.85;;;2.03;;
26253;SDS011;53339;51.378;0.094;2022-10-17T18:02:17;11.70;;;2.28;;
26253;SDS011;53339;51.378;0.094;2022-10-17T18:04:51;12.52;;;2.45;;
26253;SDS011;53339;51.378;0.094;2022-10-17T18:07:19;17.25;;;3.10;;
26253;SDS011;53339;51.378;0.094;2022-10-17T18:09:50;8.77;;;2.15;;
26253;SDS011;53339;51.378;0.094;2022-10-17T18:12:18;13.13;;;2.40;;
26253;SDS011;53339;51.378;0.094;2022-10-17T18:14:46;8.82;;;2.50;;
26253;SDS011;53339;51.378;0.094;2022-10-17T18:17:14;9.23;;;2.42;;